| |
Missouri Department of Transportation

Social Media Facebook Twitter Flickr Instagram YouTube RSS

Current METAR Information for All MoDOT Locations 
AWOS Home - General Info for all Airports
Current AWOS for all Airports - Current METAR for all Airports
Glossary - Disclaimer - Other Links


Automated Weather Observation System
Date: 03-01-2015
 
Location Current METAR Record
HANNIBAL METAR KHAE 011055Z AUTO 00000KT 3SM -SN BKN017 OVC024 M05/M07 A3036 RMK AO2
HARRISONVILLE  No current data available
LEBANON METAR KLBO 011055Z AUTO 00000KT 4SM BR BKN002 OVC012 M03/M04 A3032 RMK AO2
MALDEN  No current data available
MARSHALL METAR KMHL 011237Z AUTO 32003KT 5SM BR OVC046 M04/M04 A3038 RMK AO2
MARYVILLE  No current data available
MEXICO METAR KMYJ 011059Z AUTO 00000KT 3SM -SN SCT020 BKN025 OVC050 A3035 RMK AO2
MOBERLY METAR KMBY 011059Z AUTO 00000KT 5SM BR BKN050 BKN085 BKN100 M05/M08 A3036 RMK AO2
NEVADA METAR KNVD 011127Z AUTO 00000KT 2SM BR OVC002 M05/M05 A3036 RMK AO2
PIEDMONT  No current data available
SIKESTON  No current data available
SULLIVAN METAR KUUV 011056Z AUTO 00000KT 3SM BR BKN002 OVC012 M04/M05 A3036 RMK AO2
WARSAW  No current data available
About Us
How Do I...
Contact Us
Missouri Department of Transportation
Central Office
105 W. Capitol Avenue
Jefferson City, MO 65102
1-888-ASK-MODOT (275-6636)
1-866-831-6277 (Motor Carrier Services)
Drivers License Offices
horz_bar
| | |
Missouri State Government
© 2013 Missouri Department of Transportation. All Rights Reserved.   Privacy Policy.
 
 
 
 
RSS FeedYoutubeBlogFlickrTwitter Facebook